Time;durP1;ratioP1;P1;durP2;ratioP2;P2;SDS_P1;SDS_P2;PMS_P1;PMS_P2;Temp;Humidity;BMP_temperature;BMP_pressure;BME280_temperature;BME280_humidity;BME280_pressure;Samples;Min_cycle;Max_cycle;Signal;HPM_P1;HPM_P2
2021/09/17 00:00:29;;;;;;;5.85;2.28;;;15.40;99.90;;;;;;5030451;28;20025;-48
2021/09/17 00:02:56;;;;;;;5.47;2.25;;;15.40;99.90;;;;;;5030497;28;20045;-45
2021/09/17 00:05:21;;;;;;;7.80;2.75;;;15.40;99.90;;;;;;5030476;28;20022;-46
2021/09/17 00:07:47;;;;;;;6.53;2.97;;;15.40;99.90;;;;;;5029084;28;20033;-46
2021/09/17 00:10:13;;;;;;;3.75;2.20;;;15.30;99.90;;;;;;5030077;28;20364;-45
2021/09/17 00:12:42;;;;;;;5.20;2.03;;;15.30;99.90;;;;;;5030002;28;20538;-48
2021/09/17 00:15:09;;;;;;;4.65;2.30;;;15.30;99.90;;;;;;5030110;28;20112;-48
2021/09/17 00:17:35;;;;;;;5.53;2.40;;;15.30;99.90;;;;;;5029450;28;20025;-47
2021/09/17 00:20:02;;;;;;;5.72;1.98;;;15.30;99.90;;;;;;5029484;28;20438;-48
2021/09/17 00:22:27;;;;;;;4.57;1.90;;;15.30;99.90;;;;;;5030203;28;20123;-46
2021/09/17 00:24:53;;;;;;;4.22;2.50;;;15.30;99.90;;;;;;5029444;28;20095;-45
2021/09/17 00:27:18;;;;;;;3.75;2.00;;;15.30;99.90;;;;;;5029554;28;20131;-46
2021/09/17 00:29:44;;;;;;;5.47;2.30;;;15.30;99.90;;;;;;5028624;28;20029;-45
2021/09/17 00:32:10;;;;;;;5.57;2.13;;;15.30;99.90;;;;;;5029287;28;20029;-47
2021/09/17 00:34:35;;;;;;;5.15;2.22;;;15.30;99.90;;;;;;5029289;28;20029;-45
2021/09/17 00:37:01;;;;;;;5.90;2.50;;;15.30;99.90;;;;;;5028799;28;20087;-45
2021/09/17 00:39:26;;;;;;;9.90;2.90;;;15.30;99.90;;;;;;5029450;28;20415;-45
2021/09/17 00:41:52;;;;;;;3.03;2.28;;;15.30;99.90;;;;;;5029410;28;20083;-45
2021/09/17 00:44:26;;;;;;;5.38;2.30;;;15.20;99.90;;;;;;5029767;28;20505;-45
2021/09/17 00:46:52;;;;;;;3.10;2.53;;;15.30;99.90;;;;;;5028987;28;20026;-45
2021/09/17 00:49:19;;;;;;;7.35;2.60;;;15.20;99.90;;;;;;5029273;28;20399;-45
2021/09/17 00:51:46;;;;;;;7.45;2.42;;;15.20;99.90;;;;;;5027118;28;20522;-47
2021/09/17 00:54:12;;;;;;;5.40;2.70;;;15.20;99.90;;;;;;5029506;28;20257;-48
2021/09/17 00:56:37;;;;;;;4.32;2.28;;;15.20;99.90;;;;;;5028467;28;20385;-45
2021/09/17 00:59:03;;;;;;;4.18;2.20;;;15.20;99.90;;;;;;5029140;28;20029;-45
2021/09/17 01:01:29;;;;;;;3.38;2.22;;;15.20;99.90;;;;;;5029044;28;20040;-45
2021/09/17 01:03:55;;;;;;;5.80;2.80;;;15.20;99.90;;;;;;5029173;28;20025;-57
2021/09/17 01:06:20;;;;;;;6.53;2.15;;;15.10;99.90;;;;;;5028610;28;20028;-46
2021/09/17 01:08:46;;;;;;;4.75;2.35;;;15.10;99.90;;;;;;5028376;28;20584;-46
2021/09/17 01:11:12;;;;;;;6.50;2.30;;;15.10;99.90;;;;;;5028769;28;20116;-45
2021/09/17 01:13:39;;;;;;;6.00;2.60;;;15.10;99.90;;;;;;5028964;28;20179;-44
2021/09/17 01:16:05;;;;;;;5.32;2.28;;;15.10;99.90;;;;;;5028793;28;20029;-45
2021/09/17 01:18:31;;;;;;;10.07;3.45;;;15.10;99.90;;;;;;5028335;28;20586;-49
2021/09/17 01:20:58;;;;;;;5.70;2.50;;;15.10;99.90;;;;;;5028918;28;20341;-50
2021/09/17 01:23:25;;;;;;;3.67;2.42;;;15.10;99.90;;;;;;5028855;28;20025;-50
2021/09/17 01:25:50;;;;;;;5.10;2.60;;;15.10;99.90;;;;;;5028737;28;20036;-49
2021/09/17 01:28:24;;;;;;;7.05;2.47;;;15.10;99.90;;;;;;5026902;28;20034;-48
2021/09/17 01:30:50;;;;;;;5.57;2.75;;;15.00;99.90;;;;;;5028848;28;20029;-50
2021/09/17 01:33:16;;;;;;;3.20;2.50;;;15.00;99.90;;;;;;5028736;28;20037;-48
2021/09/17 01:35:42;;;;;;;4.35;2.60;;;15.00;99.90;;;;;;5028902;28;20029;-50
2021/09/17 01:38:08;;;;;;;7.97;2.30;;;15.10;99.90;;;;;;5028364;28;20475;-48
2021/09/17 01:40:33;;;;;;;8.50;2.42;;;15.10;99.90;;;;;;5026925;28;20025;-50
2021/09/17 01:42:59;;;;;;;5.53;3.00;;;15.10;99.90;;;;;;5028868;28;20041;-48
2021/09/17 01:45:25;;;;;;;4.68;2.47;;;15.10;99.90;;;;;;5028111;28;20033;-51
2021/09/17 01:47:50;;;;;;;3.88;2.40;;;15.10;99.90;;;;;;5027880;28;20026;-48
2021/09/17 01:50:16;;;;;;;3.67;2.60;;;15.10;99.90;;;;;;5028184;28;20044;-49
2021/09/17 01:52:42;;;;;;;7.28;2.97;;;15.10;99.90;;;;;;5027198;28;20439;-50
2021/09/17 01:55:08;;;;;;;7.20;2.40;;;15.10;99.90;;;;;;5028445;28;20084;-48
2021/09/17 01:57:34;;;;;;;7.20;2.80;;;15.00;99.90;;;;;;5027578;28;20088;-47
2021/09/17 02:00:00;;;;;;;7.80;3.38;;;15.10;99.90;;;;;;5028332;28;20021;-50
2021/09/17 02:02:26;;;;;;;6.45;2.88;;;15.00;99.90;;;;;;5028039;28;20051;-48
2021/09/17 02:04:51;;;;;;;6.40;3.38;;;15.00;99.90;;;;;;5028431;28;20025;-47
2021/09/17 02:07:17;;;;;;;10.80;3.60;;;15.00;99.90;;;;;;5027826;28;20021;-50
2021/09/17 02:09:43;;;;;;;3.22;2.58;;;15.00;99.90;;;;;;5028381;28;20061;-50
2021/09/17 02:12:09;;;;;;;6.95;3.13;;;15.00;99.90;;;;;;5028627;28;20464;-50
2021/09/17 02:14:34;;;;;;;7.28;3.28;;;15.00;99.90;;;;;;5028267;28;20026;-48
2021/09/17 02:17:00;;;;;;;7.00;3.05;;;15.00;99.90;;;;;;5027778;28;20014;-48
2021/09/17 02:19:25;;;;;;;7.68;3.20;;;15.00;99.90;;;;;;5028117;28;20467;-49
2021/09/17 02:21:54;;;;;;;5.18;3.15;;;15.00;99.90;;;;;;5028030;28;20037;-48
2021/09/17 02:24:20;;;;;;;12.57;4.45;;;15.00;99.90;;;;;;5028413;28;20356;-49
2021/09/17 02:26:46;;;;;;;6.30;3.47;;;14.90;99.90;;;;;;5026233;28;20116;-47
2021/09/17 02:29:11;;;;;;;9.55;3.70;;;14.90;99.90;;;;;;5028294;28;20028;-47
2021/09/17 02:31:37;;;;;;;6.95;4.35;;;14.90;99.90;;;;;;5028039;28;20029;-47
2021/09/17 02:34:03;;;;;;;9.27;4.80;;;14.80;99.90;;;;;;5028342;28;20026;-47
2021/09/17 02:36:28;;;;;;;8.10;4.32;;;14.80;99.90;;;;;;5026408;28;20021;-49
2021/09/17 02:38:54;;;;;;;10.25;4.85;;;14.80;99.90;;;;;;5028453;28;20497;-47
2021/09/17 02:41:20;;;;;;;10.02;4.82;;;14.80;99.90;;;;;;5028174;28;20029;-47
2021/09/17 02:43:45;;;;;;;10.80;5.18;;;14.80;99.90;;;;;;5028309;28;20109;-47
2021/09/17 02:46:11;;;;;;;7.60;4.47;;;14.80;99.90;;;;;;5027772;28;20056;-48
2021/09/17 02:48:37;;;;;;;8.50;4.85;;;14.80;99.90;;;;;;5027547;28;20490;-47
2021/09/17 02:51:02;;;;;;;12.07;5.57;;;14.70;99.90;;;;;;5027985;28;20022;-47
2021/09/17 02:53:28;;;;;;;8.88;5.03;;;14.70;99.90;;;;;;5027872;28;20029;-47
2021/09/17 02:55:53;;;;;;;8.77;5.15;;;14.70;99.90;;;;;;5028726;28;20106;-48
2021/09/17 02:58:19;;;;;;;9.70;4.50;;;14.70;99.90;;;;;;5030967;28;20033;-47
2021/09/17 03:00:44;;;;;;;6.97;4.60;;;14.70;99.90;;;;;;5031537;28;20022;-47
2021/09/17 03:03:10;;;;;;;10.63;5.28;;;14.70;99.90;;;;;;5031811;28;20101;-48
2021/09/17 03:05:36;;;;;;;10.63;4.97;;;14.70;99.90;;;;;;5031520;28;20434;-50
2021/09/17 03:08:02;;;;;;;8.95;5.65;;;14.70;99.90;;;;;;5030707;28;20021;-50
2021/09/17 03:10:28;;;;;;;16.52;5.55;;;14.70;99.90;;;;;;5031147;28;20525;-50
2021/09/17 03:12:53;;;;;;;7.43;5.05;;;14.70;99.90;;;;;;5031180;28;20036;-50
2021/09/17 03:15:19;;;;;;;12.00;5.30;;;14.70;99.90;;;;;;5031106;28;20108;-48
2021/09/17 03:17:44;;;;;;;9.65;5.90;;;14.70;99.90;;;;;;5030515;28;20036;-50
2021/09/17 03:20:11;;;;;;;7.40;4.60;;;14.70;99.90;;;;;;5031037;28;20044;-50
2021/09/17 03:22:36;;;;;;;9.63;4.90;;;14.70;99.90;;;;;;5031017;28;20030;-50
2021/09/17 03:25:03;;;;;;;7.07;5.18;;;14.70;99.90;;;;;;5029669;28;20487;-50
2021/09/17 03:27:29;;;;;;;8.40;4.97;;;14.70;99.90;;;;;;5030395;28;20434;-49
2021/09/17 03:29:55;;;;;;;11.50;6.10;;;14.80;99.90;;;;;;5030897;28;20104;-50
2021/09/17 03:32:20;;;;;;;8.07;5.70;;;14.80;99.90;;;;;;5030781;28;20364;-48
2021/09/17 03:34:46;;;;;;;6.97;5.85;;;14.80;99.90;;;;;;5029638;28;20060;-50
2021/09/17 03:37:12;;;;;;;7.57;5.20;;;14.80;99.90;;;;;;5030288;28;20017;-49
2021/09/17 03:39:38;;;;;;;15.57;6.25;;;14.80;99.90;;;;;;5030817;28;20071;-50
2021/09/17 03:42:04;;;;;;;7.07;6.05;;;14.70;99.90;;;;;;5030748;28;20029;-50
2021/09/17 03:44:30;;;;;;;10.00;6.32;;;14.70;99.90;;;;;;5030650;28;20083;-50
2021/09/17 03:46:55;;;;;;;7.65;5.40;;;14.70;99.90;;;;;;5030209;28;20034;-50
2021/09/17 03:49:21;;;;;;;8.23;5.38;;;14.70;99.90;;;;;;5031157;28;20022;-51
2021/09/17 03:51:47;;;;;;;8.75;5.53;;;14.70;99.90;;;;;;5030768;28;20036;-50
2021/09/17 03:54:12;;;;;;;10.90;6.40;;;14.60;99.90;;;;;;5030578;28;20025;-50
2021/09/17 03:56:38;;;;;;;9.77;5.57;;;14.70;99.90;;;;;;5029761;28;20181;-49
2021/09/17 03:59:04;;;;;;;9.20;6.13;;;14.70;99.90;;;;;;5030383;28;20049;-49
2021/09/17 04:01:29;;;;;;;11.25;6.00;;;14.70;99.90;;;;;;5030534;28;20523;-47
2021/09/17 04:03:55;;;;;;;9.43;6.93;;;14.60;99.90;;;;;;5030497;28;20018;-46
2021/09/17 04:06:21;;;;;;;14.05;6.70;;;14.60;99.90;;;;;;5030131;28;20487;-48
2021/09/17 04:08:46;;;;;;;9.60;5.97;;;14.60;99.90;;;;;;5028854;28;20405;-47
2021/09/17 04:11:12;;;;;;;9.75;6.35;;;14.60;99.90;;;;;;5030243;28;20029;-47
2021/09/17 04:13:37;;;;;;;12.63;6.07;;;14.60;99.90;;;;;;5029873;28;20041;-48
2021/09/17 04:16:03;;;;;;;12.23;7.40;;;14.60;99.90;;;;;;5029897;28;20522;-47
2021/09/17 04:18:29;;;;;;;9.40;6.78;;;14.60;99.90;;;;;;5028284;28;20431;-47
2021/09/17 04:20:54;;;;;;;11.77;6.53;;;14.60;99.90;;;;;;5030088;28;20104;-46
2021/09/17 04:23:20;;;;;;;12.38;6.95;;;14.60;99.90;;;;;;5030053;28;20333;-47
2021/09/17 04:25:45;;;;;;;10.10;6.88;;;14.50;99.90;;;;;;5029989;28;20284;-49
2021/09/17 04:28:11;;;;;;;11.85;7.15;;;14.50;99.90;;;;;;5029573;28;20519;-47
2021/09/17 04:30:36;;;;;;;11.88;8.02;;;14.40;99.90;;;;;;5029375;28;20052;-48
2021/09/17 04:33:02;;;;;;;9.48;6.95;;;14.40;99.90;;;;;;5029159;28;20109;-48
2021/09/17 04:35:28;;;;;;;10.23;7.65;;;14.40;99.90;;;;;;5029894;28;20506;-51
2021/09/17 04:37:56;;;;;;;11.82;6.80;;;14.40;99.90;;;;;;5029204;28;20101;-50
2021/09/17 04:40:23;;;;;;;13.27;7.15;;;14.40;99.90;;;;;;5029578;28;20075;-50
2021/09/17 04:42:49;;;;;;;9.85;6.82;;;14.40;99.90;;;;;;5029614;28;20396;-50
2021/09/17 04:45:15;;;;;;;16.73;7.90;;;14.40;99.90;;;;;;5031735;28;20030;-50
2021/09/17 04:47:40;;;;;;;12.95;6.05;;;14.40;99.90;;;;;;5047538;28;20471;-48
2021/09/17 04:50:07;;;;;;;11.05;7.90;;;14.40;99.90;;;;;;5047799;28;20063;-49
2021/09/17 04:52:33;;;;;;;12.05;8.07;;;14.50;99.90;;;;;;5038587;28;20040;-49
2021/09/17 04:54:59;;;;;;;11.00;7.93;;;14.50;99.90;;;;;;5037297;28;20018;-49
2021/09/17 04:57:26;;;;;;;14.77;7.85;;;14.50;99.90;;;;;;5031345;28;20108;-53
2021/09/17 04:59:52;;;;;;;10.55;7.13;;;14.50;99.90;;;;;;5029587;28;20021;-49
2021/09/17 05:02:18;;;;;;;12.48;7.97;;;14.50;99.90;;;;;;5029430;28;20033;-48
2021/09/17 05:04:44;;;;;;;9.35;8.13;;;14.50;99.90;;;;;;5029431;28;20029;-50
2021/09/17 05:07:11;;;;;;;12.88;8.13;;;14.50;99.90;;;;;;5028640;28;20590;-47
2021/09/17 05:09:37;;;;;;;10.45;7.70;;;14.50;99.90;;;;;;5030493;28;20521;-48
2021/09/17 05:12:03;;;;;;;8.55;7.07;;;14.50;99.90;;;;;;5043189;28;20394;-48
2021/09/17 05:14:28;;;;;;;16.85;7.93;;;14.50;99.90;;;;;;5048799;28;20033;-50
2021/09/17 05:16:54;;;;;;;20.02;9.23;;;14.50;99.90;;;;;;5047025;28;20027;-51
2021/09/17 05:19:23;;;;;;;11.15;8.38;;;14.60;99.90;;;;;;5048765;28;20236;-50
2021/09/17 05:21:50;;;;;;;12.90;7.63;;;14.60;99.90;;;;;;5048774;28;20024;-49
2021/09/17 05:24:16;;;;;;;13.43;6.95;;;14.60;99.90;;;;;;5047534;28;20483;-51
2021/09/17 05:26:41;;;;;;;9.50;7.25;;;14.60;99.90;;;;;;5048031;28;20036;-51
2021/09/17 05:29:07;;;;;;;15.05;7.50;;;14.60;99.90;;;;;;5048834;28;20035;-49
2021/09/17 05:31:32;;;;;;;11.23;7.22;;;14.70;99.90;;;;;;5048756;28;20581;-51
2021/09/17 05:33:59;;;;;;;14.75;7.53;;;14.60;99.90;;;;;;5048840;28;20021;-49
2021/09/17 05:36:25;;;;;;;12.07;7.53;;;14.60;99.90;;;;;;5048366;28;20016;-49
2021/09/17 05:38:50;;;;;;;12.77;8.07;;;14.60;99.90;;;;;;5048391;28;20530;-50
2021/09/17 05:41:16;;;;;;;15.77;8.35;;;14.60;99.90;;;;;;5041931;28;20449;-51
2021/09/17 05:43:42;;;;;;;15.27;7.75;;;14.60;99.90;;;;;;5031340;28;20048;-50
2021/09/17 05:46:07;;;;;;;13.80;8.95;;;14.60;99.90;;;;;;5040221;28;20609;-50
2021/09/17 05:48:33;;;;;;;14.63;9.60;;;14.60;99.90;;;;;;5047170;28;20471;-49
2021/09/17 05:50:58;;;;;;;16.10;9.02;;;14.60;99.90;;;;;;5047479;28;20398;-51
2021/09/17 05:53:24;;;;;;;15.52;9.80;;;14.60;99.90;;;;;;5047246;28;20022;-48
2021/09/17 05:55:49;;;;;;;17.10;9.68;;;14.60;99.90;;;;;;5047169;28;20100;-50
2021/09/17 05:58:15;;;;;;;12.82;8.60;;;14.60;99.90;;;;;;5046983;28;20013;-49
2021/09/17 06:00:41;;;;;;;15.30;9.02;;;14.60;99.90;;;;;;5046591;28;20029;-51
2021/09/17 06:03:06;;;;;;;13.00;8.20;;;14.70;99.90;;;;;;5047570;28;20029;-49
2021/09/17 06:05:32;;;;;;;13.18;8.60;;;14.70;99.90;;;;;;5047610;28;20029;-51
2021/09/17 06:07:57;;;;;;;12.38;7.90;;;14.80;99.90;;;;;;5047404;28;20466;-51
2021/09/17 06:10:23;;;;;;;20.13;8.98;;;14.80;99.90;;;;;;5047356;28;20028;-51
2021/09/17 06:12:48;;;;;;;10.45;7.45;;;14.80;99.90;;;;;;5046913;28;20033;-51
2021/09/17 06:15:18;;;;;;;11.65;7.90;;;14.80;99.90;;;;;;5047636;28;20060;-51
2021/09/17 06:17:44;;;;;;;35.40;20.48;;;14.90;99.90;;;;;;5045425;28;20415;-51
2021/09/17 06:20:11;;;;;;;13.15;8.23;;;14.90;99.90;;;;;;5047648;28;20065;-49
2021/09/17 06:22:39;;;;;;;10.75;8.10;;;14.90;99.90;;;;;;5047472;28;20119;-51
2021/09/17 06:25:05;;;;;;;14.13;8.70;;;14.90;99.90;;;;;;5046206;28;20044;-51
2021/09/17 06:27:32;;;;;;;16.70;8.38;;;14.90;99.90;;;;;;5047006;28;20136;-50
2021/09/17 06:29:57;;;;;;;9.65;7.22;;;15.00;99.90;;;;;;5039242;28;20121;-49
2021/09/17 06:32:23;;;;;;;10.25;6.88;;;15.00;99.90;;;;;;5040193;28;20429;-51
2021/09/17 06:34:49;;;;;;;12.63;7.78;;;15.00;99.90;;;;;;5034174;28;20029;-49
2021/09/17 06:37:14;;;;;;;8.65;6.38;;;15.00;99.90;;;;;;5032261;28;20021;-51
2021/09/17 06:39:40;;;;;;;14.07;6.90;;;15.10;99.90;;;;;;5033077;28;20063;-50
2021/09/17 06:42:07;;;;;;;11.15;6.55;;;15.10;99.90;;;;;;5035976;28;20041;-51
2021/09/17 06:44:33;;;;;;;17.88;6.55;;;15.10;99.90;;;;;;5038659;28;20049;-51
2021/09/17 06:46:59;;;;;;;10.93;5.50;;;15.20;99.90;;;;;;5030402;28;20403;-51
2021/09/17 06:49:24;;;;;;;9.57;6.25;;;15.20;99.90;;;;;;5042707;28;20071;-52
2021/09/17 06:51:50;;;;;;;9.68;5.85;;;15.30;99.90;;;;;;5051153;28;20064;-52
2021/09/17 06:54:15;;;;;;;10.90;6.85;;;15.30;99.90;;;;;;5050794;28;20256;-52
2021/09/17 06:56:41;;;;;;;8.55;6.25;;;15.40;99.90;;;;;;5048690;28;20013;-52
2021/09/17 06:59:06;;;;;;;10.88;5.60;;;15.40;99.90;;;;;;5050155;28;20064;-52
2021/09/17 07:01:32;;;;;;;12.48;5.45;;;15.40;99.90;;;;;;5050865;28;20049;-52
2021/09/17 07:03:57;;;;;;;8.63;4.53;;;15.40;99.90;;;;;;5051553;28;20133;-52
2021/09/17 07:06:23;;;;;;;9.73;3.97;;;15.50;99.90;;;;;;5050905;28;20133;-52
2021/09/17 07:08:49;;;;;;;8.57;4.28;;;15.60;99.90;;;;;;5051173;28;20067;-52
2021/09/17 07:11:14;;;;;;;6.05;3.88;;;15.70;99.90;;;;;;5050804;28;20510;-52
2021/09/17 07:13:40;;;;;;;4.60;3.95;;;15.80;99.90;;;;;;5051055;28;20386;-52
2021/09/17 07:16:06;;;;;;;4.35;3.65;;;16.00;99.90;;;;;;5050913;28;20222;-52
2021/09/17 07:18:31;;;;;;;5.85;3.70;;;16.10;99.90;;;;;;5049018;28;20116;-52
2021/09/17 07:20:57;;;;;;;9.20;3.60;;;16.10;99.90;;;;;;5051018;28;20381;-52
2021/09/17 07:23:22;;;;;;;10.55;4.13;;;16.10;99.90;;;;;;5051311;28;20041;-52
2021/09/17 07:25:48;;;;;;;8.07;3.83;;;16.00;99.90;;;;;;5049726;28;20386;-52
2021/09/17 07:28:14;;;;;;;9.07;3.30;;;16.10;99.90;;;;;;5050341;28;20090;-52
2021/09/17 07:30:40;;;;;;;9.32;3.78;;;16.00;99.90;;;;;;5050759;28;20025;-52
2021/09/17 07:33:05;;;;;;;10.05;3.42;;;15.90;99.90;;;;;;5051029;28;20029;-52
2021/09/17 07:35:32;;;;;;;5.95;3.33;;;16.00;99.90;;;;;;5050922;28;20020;-52
2021/09/17 07:37:58;;;;;;;4.28;3.03;;;16.00;99.90;;;;;;5049241;28;20036;-52
2021/09/17 07:40:26;;;;;;;7.10;2.72;;;16.00;99.90;;;;;;5050236;28;20436;-52
2021/09/17 07:42:52;;;;;;;5.68;2.90;;;16.20;99.90;;;;;;5050631;28;20096;-52
2021/09/17 07:45:21;;;;;;;5.93;2.60;;;16.10;99.90;;;;;;5049701;28;20025;-52
2021/09/17 07:47:47;;;;;;;7.22;2.72;;;16.20;99.90;;;;;;5051381;28;20034;-52
2021/09/17 07:50:14;;;;;;;5.05;2.45;;;16.20;99.90;;;;;;5052008;28;20027;-52
2021/09/17 07:52:40;;;;;;;3.40;2.60;;;16.20;99.90;;;;;;5051824;28;20467;-53
2021/09/17 07:55:06;;;;;;;6.43;2.65;;;16.20;99.90;;;;;;5052233;28;20021;-52
2021/09/17 07:57:32;;;;;;;2.53;2.00;;;16.30;99.90;;;;;;5051329;28;20087;-52
2021/09/17 07:59:57;;;;;;;6.03;2.70;;;16.30;99.90;;;;;;5051979;28;20612;-52
2021/09/17 08:02:23;;;;;;;6.40;3.00;;;16.20;99.90;;;;;;5051911;28;20539;-52
2021/09/17 08:04:48;;;;;;;8.25;2.42;;;16.30;99.90;;;;;;5051716;28;20061;-52
2021/09/17 08:07:14;;;;;;;6.03;2.38;;;16.30;99.90;;;;;;5051404;28;20025;-52
2021/09/17 08:09:39;;;;;;;5.10;2.17;;;16.50;99.90;;;;;;5051027;28;20071;-52
2021/09/17 08:12:06;;;;;;;5.65;2.03;;;16.80;99.90;;;;;;5049903;28;20017;-52
2021/09/17 08:14:31;;;;;;;3.38;2.05;;;16.80;99.90;;;;;;5049742;28;20041;-52
2021/09/17 08:16:57;;;;;;;5.28;2.03;;;16.90;99.90;;;;;;5049342;28;20179;-52
2021/09/17 08:19:22;;;;;;;3.33;1.80;;;16.90;99.90;;;;;;5050241;28;20032;-52
2021/09/17 08:21:48;;;;;;;7.20;1.88;;;17.00;99.90;;;;;;5049803;28;20024;-52
2021/09/17 08:24:16;;;;;;;5.03;2.08;;;17.00;99.90;;;;;;5049753;28;20471;-52
2021/09/17 08:26:47;;;;;;;3.60;2.00;;;16.90;99.90;;;;;;5049161;28;20052;-52
2021/09/17 08:29:12;;;;;;;6.38;1.90;;;16.90;99.90;;;;;;5049676;28;20066;-52
2021/09/17 08:31:39;;;;;;;3.97;2.00;;;16.90;99.90;;;;;;5049551;28;20025;-52
2021/09/17 08:34:06;;;;;;;4.72;1.90;;;16.90;99.90;;;;;;5049569;28;20572;-52
2021/09/17 08:36:32;;;;;;;5.85;2.13;;;17.00;99.90;;;;;;5048965;28;20025;-52
2021/09/17 08:38:57;;;;;;;5.82;2.22;;;17.10;99.90;;;;;;5049493;28;20064;-52
2021/09/17 08:41:24;;;;;;;10.68;3.05;;;17.30;99.90;;;;;;5049530;28;20497;-53
2021/09/17 08:43:50;;;;;;;2.92;1.52;;;17.50;99.90;;;;;;5049508;28;20021;-52
2021/09/17 08:46:16;;;;;;;3.50;1.80;;;17.60;99.90;;;;;;5049712;28;20351;-52
2021/09/17 08:48:43;;;;;;;3.97;1.55;;;17.50;99.90;;;;;;5048894;28;20032;-52
2021/09/17 08:51:09;;;;;;;5.35;1.48;;;17.50;99.90;;;;;;5049313;28;20025;-52
2021/09/17 08:53:35;;;;;;;2.38;1.60;;;17.40;99.90;;;;;;5048876;28;20375;-52
2021/09/17 08:56:01;;;;;;;2.67;1.50;;;17.30;99.90;;;;;;5049211;28;20301;-53
2021/09/17 08:58:27;;;;;;;4.72;1.70;;;17.40;99.90;;;;;;5047535;28;20044;-52
2021/09/17 09:00:53;;;;;;;4.82;1.73;;;17.30;99.90;;;;;;5049130;28;20028;-53
2021/09/17 09:03:34;;;;;;;8.00;1.90;;;17.40;99.90;;;;;;5049527;28;20021;-53
2021/09/17 09:06:14;;;;;;;2.58;1.65;;;17.40;99.90;;;;;;5049022;28;20037;-53
2021/09/17 09:08:40;;;;;;;5.60;1.80;;;17.30;99.90;;;;;;5048777;28;20037;-54
2021/09/17 09:11:22;;;;;;;3.17;1.77;;;17.20;99.90;;;;;;5048853;28;20219;-52
2021/09/17 09:13:59;;;;;;;5.28;2.13;;;17.10;99.90;;;;;;5048725;28;20036;-52
2021/09/17 09:16:25;;;;;;;5.20;2.00;;;17.00;99.90;;;;;;5047301;28;20534;-52
2021/09/17 09:18:51;;;;;;;3.30;1.73;;;16.90;99.90;;;;;;5048902;28;20111;-52
2021/09/17 09:21:44;;;;;;;3.55;1.42;;;16.80;99.90;;;;;;5048911;28;20035;-52
2021/09/17 09:24:12;;;;;;;5.88;1.80;;;16.80;99.90;;;;;;5047718;28;20036;-52
2021/09/17 09:26:38;;;;;;;2.88;1.25;;;16.60;99.90;;;;;;5048112;28;20021;-52
2021/09/17 09:29:05;;;;;;;5.88;1.80;;;16.60;99.90;;;;;;5047584;28;20036;-52
2021/09/17 09:31:42;;;;;;;3.50;1.48;;;16.60;99.90;;;;;;5048650;28;20104;-54
2021/09/17 09:34:09;;;;;;;4.55;1.38;;;16.60;99.90;;;;;;5047390;28;20037;-54
2021/09/17 09:36:35;;;;;;;2.65;1.45;;;16.50;99.90;;;;;;5048023;28;20029;-54
2021/09/17 09:39:03;;;;;;;3.60;1.67;;;16.30;99.90;;;;;;5048377;28;20107;-52
2021/09/17 09:41:33;;;;;;;3.72;1.30;;;16.20;99.90;;;;;;5048619;28;20028;-52
2021/09/17 09:44:16;;;;;;;5.03;1.65;;;16.20;99.90;;;;;;5048785;28;20017;-54
2021/09/17 09:46:46;;;;;;;4.45;1.75;;;16.10;99.90;;;;;;5048169;28;20163;-52
2021/09/17 09:49:22;;;;;;;5.68;1.77;;;16.10;99.90;;;;;;5048606;28;20099;-54
2021/09/17 09:52:09;;;;;;;2.38;1.42;;;16.10;99.90;;;;;;5048733;28;20116;-52
2021/09/17 09:54:37;;;;;;;4.60;1.38;;;16.10;99.90;;;;;;5048485;28;20025;-52
2021/09/17 09:57:04;;;;;;;1.50;1.35;;;16.30;99.90;;;;;;5048145;28;20028;-54
2021/09/17 09:59:32;;;;;;;3.10;1.02;;;17.30;99.90;;;;;;5048176;28;20102;-54
2021/09/17 10:02:00;;;;;;;6.43;1.38;;;18.80;99.90;;;;;;5048313;28;20025;-54
2021/09/17 10:04:28;;;;;;;2.55;0.98;;;20.60;99.90;;;;;;5048119;28;20017;-55
2021/09/17 10:07:08;;;;;;;2.17;0.73;;;21.00;99.90;;;;;;5050266;28;20114;-54
2021/09/17 10:09:36;;;;;;;4.78;1.20;;;20.80;99.90;;;;;;5052421;28;20029;-54
2021/09/17 10:12:03;;;;;;;5.28;1.10;;;20.40;99.90;;;;;;5046342;28;20033;-54
2021/09/17 10:14:30;;;;;;;5.60;1.17;;;20.10;99.90;;;;;;5047698;28;20037;-53
2021/09/17 10:16:58;;;;;;;4.57;0.73;;;19.80;99.90;;;;;;5050713;28;20108;-52
2021/09/17 10:19:24;;;;;;;2.15;1.00;;;19.50;99.90;;;;;;5051318;28;20021;-53
2021/09/17 10:22:01;;;;;;;4.25;1.08;;;19.20;99.90;;;;;;5049831;28;20028;-53
2021/09/17 10:24:26;;;;;;;1.90;0.85;;;18.90;99.90;;;;;;5046349;28;20028;-53
2021/09/17 10:27:18;;;;;;;7.28;2.00;;;18.70;99.90;;;;;;5050194;28;20479;-54
2021/09/17 10:29:45;;;;;;;2.47;1.30;;;18.40;99.90;;;;;;5051093;28;20147;-53
2021/09/17 10:32:35;;;;;;;3.15;1.23;;;18.20;99.90;;;;;;5051051;28;20032;-52
2021/09/17 10:35:15;;;;;;;3.35;1.15;;;18.00;99.90;;;;;;5051123;28;20113;-52
2021/09/17 10:37:54;;;;;;;3.20;1.48;;;17.90;99.90;;;;;;5051830;28;20025;-52
2021/09/17 10:40:50;;;;;;;2.08;1.00;;;17.80;99.90;;;;;;5052132;28;20095;-52
2021/09/17 10:43:19;;;;;;;3.97;1.20;;;17.70;99.90;;;;;;5052706;28;20029;-53
2021/09/17 10:46:15;;;;;;;3.45;0.90;;;17.70;99.90;;;;;;5052428;28;20048;-52
2021/09/17 10:48:40;;;;;;;0.95;0.80;;;17.70;99.90;;;;;;5041344;28;20060;-52
2021/09/17 10:51:08;;;;;;;2.88;0.80;;;17.80;99.90;;;;;;5051037;28;20110;-52
2021/09/17 10:53:40;;;;;;;3.53;0.95;;;17.80;99.90;;;;;;5050135;28;20024;-53
2021/09/17 10:56:11;;;;;;;2.47;0.80;;;17.80;99.90;;;;;;5050547;28;20021;-53
2021/09/17 10:58:38;;;;;;;2.38;1.20;;;17.70;99.90;;;;;;5050616;28;20104;-52
2021/09/17 11:01:10;;;;;;;2.33;0.98;;;17.80;99.90;;;;;;5050557;28;20483;-52
2021/09/17 11:03:36;;;;;;;4.38;1.05;;;17.80;99.90;;;;;;5049556;28;20533;-52
2021/09/17 11:06:27;;;;;;;5.30;1.55;;;18.00;99.90;;;;;;5050502;28;20021;-53
2021/09/17 11:09:02;;;;;;;3.13;1.20;;;18.00;99.90;;;;;;5050653;28;20039;-53
2021/09/17 11:11:28;;;;;;;3.67;1.20;;;18.00;99.90;;;;;;5052623;28;20444;-54
2021/09/17 11:14:02;;;;;;;3.08;1.00;;;17.90;99.90;;;;;;5052215;28;20083;-52
2021/09/17 11:16:29;;;;;;;2.35;1.25;;;17.70;99.90;;;;;;5051620;28;20020;-53
2021/09/17 11:19:09;;;;;;;2.28;1.20;;;17.60;99.90;;;;;;5050941;28;20029;-52
2021/09/17 11:21:37;;;;;;;3.07;1.00;;;17.50;99.90;;;;;;5052220;28;20023;-52
2021/09/17 11:24:04;;;;;;;3.10;1.10;;;17.30;99.90;;;;;;5051502;28;20027;-52
2021/09/17 11:26:33;;;;;;;0.73;0.65;;;17.30;99.90;;;;;;5049606;28;20017;-52
2021/09/17 11:29:06;;;;;;;2.25;1.05;;;17.10;99.90;;;;;;5049190;28;20060;-52
2021/09/17 11:31:40;;;;;;;2.13;1.30;;;17.00;99.90;;;;;;5041865;28;20025;-53
2021/09/17 11:34:10;;;;;;;2.67;1.10;;;17.00;99.90;;;;;;5036948;28;20033;-53
2021/09/17 11:36:36;;;;;;;4.47;1.58;;;16.90;99.90;;;;;;5047492;28;20607;-52
2021/09/17 11:39:18;;;;;;;2.10;1.50;;;17.00;99.90;;;;;;5049703;28;20025;-52
2021/09/17 11:41:46;;;;;;;1.42;1.20;;;17.00;99.90;;;;;;5049735;28;20020;-52
2021/09/17 11:44:38;;;;;;;2.30;1.58;;;17.00;99.90;;;;;;5049533;28;20221;-52
2021/09/17 11:47:12;;;;;;;2.58;1.00;;;17.00;99.90;;;;;;5036115;28;20253;-52
2021/09/17 11:49:42;;;;;;;6.45;1.63;;;17.00;99.90;;;;;;5039825;28;20018;-52
2021/09/17 11:52:13;;;;;;;4.07;1.08;;;17.00;99.90;;;;;;5039909;28;20120;-52
2021/09/17 11:54:38;;;;;;;;;;;16.90;99.90;;;;;;5040988;28;20022;-52
2021/09/17 11:57:10;;;;;;;2.53;1.10;;;17.00;99.90;;;;;;5037136;28;20386;-52
2021/09/17 11:59:41;;;;;;;7.57;1.27;;;16.90;99.90;;;;;;5039661;28;20037;-52
2021/09/17 12:02:21;;;;;;;1.80;0.80;;;16.80;99.90;;;;;;5036494;28;20017;-52
2021/09/17 12:04:52;;;;;;;1.63;0.90;;;16.90;99.90;;;;;;5038021;28;20499;-53
2021/09/17 12:07:18;;;;;;;1.90;1.23;;;17.00;99.90;;;;;;5037366;28;20060;-52
2021/09/17 12:09:45;;;;;;;3.60;1.13;;;17.00;99.90;;;;;;5032777;28;20021;-52
2021/09/17 12:12:12;;;;;;;2.15;0.95;;;17.00;99.90;;;;;;5029963;28;20052;-52
2021/09/17 12:14:39;;;;;;;2.88;1.15;;;17.20;99.90;;;;;;5030652;28;20025;-52
2021/09/17 12:17:08;;;;;;;2.60;0.85;;;17.50;99.90;;;;;;5028170;28;20263;-52
2021/09/17 12:19:53;;;;;;;1.35;0.80;;;17.50;99.90;;;;;;5029839;28;20022;-52
2021/09/17 12:22:47;;;;;;;5.28;0.98;;;17.60;99.90;;;;;;5028865;28;20544;-52
2021/09/17 12:25:19;;;;;;;1.27;0.80;;;17.70;99.90;;;;;;5030153;28;20091;-53
2021/09/17 12:27:46;;;;;;;3.92;0.75;;;17.80;99.90;;;;;;5029410;28;20029;-52
2021/09/17 12:30:21;;;;;;;0.93;0.80;;;17.70;99.90;;;;;;5029397;28;20045;-52
2021/09/17 12:33:11;;;;;;;2.78;0.90;;;17.80;99.90;;;;;;5030045;28;20436;-52
2021/09/17 12:35:43;;;;;;;2.25;0.98;;;17.90;99.90;;;;;;5030029;28;20052;-52
2021/09/17 12:38:10;;;;;;;2.13;0.75;;;17.80;99.90;;;;;;5029573;28;20391;-52
2021/09/17 12:40:42;;;;;;;3.22;0.63;;;18.00;99.90;;;;;;5029808;28;20534;-52
2021/09/17 12:43:14;;;;;;;2.10;0.82;;;18.00;99.90;;;;;;5029882;28;20052;-52
2021/09/17 12:45:43;;;;;;;1.90;1.00;;;18.10;99.90;;;;;;5029690;28;20109;-52
2021/09/17 12:48:10;;;;;;;3.40;1.15;;;18.20;99.90;;;;;;5031319;28;20070;-52